createdAt,value
2023-04-30T00:02:29.368Z,100.00
2023-04-30T00:05:32.780Z,100.00
2023-04-30T00:08:37.094Z,100.00
2023-04-30T00:11:40.164Z,100.00
2023-04-30T00:14:43.177Z,100.00
2023-04-30T00:17:46.256Z,100.00
2023-04-30T00:20:51.863Z,100.00
2023-04-30T00:23:56.272Z,100.00
2023-04-30T00:26:59.276Z,100.00
2023-04-30T00:30:02.313Z,100.00
2023-04-30T00:33:06.932Z,100.00
2023-04-30T00:36:09.942Z,100.00
2023-04-30T00:39:14.266Z,100.00
2023-04-30T00:42:20.018Z,100.00
2023-04-30T00:45:24.675Z,100.00
2023-04-30T00:48:28.839Z,100.00
2023-04-30T00:51:33.900Z,100.00
2023-04-30T00:54:38.488Z,100.00
2023-04-30T00:57:41.908Z,100.00
2023-04-30T01:00:47.145Z,100.00
2023-04-30T01:03:50.488Z,100.00
2023-04-30T01:06:53.678Z,100.00
2023-04-30T01:09:58.498Z,100.00
2023-04-30T01:13:11.530Z,100.00
2023-04-30T01:16:20.669Z,100.00
2023-04-30T01:19:40.229Z,100.00
2023-04-30T01:22:52.003Z,100.00
2023-04-30T01:26:14.430Z,100.00
2023-04-30T01:29:23.225Z,100.00
2023-04-30T01:32:26.738Z,100.00
2023-04-30T01:35:45.685Z,100.00
2023-04-30T01:39:19.354Z,100.00
2023-04-30T01:42:24.511Z,100.00
2023-04-30T01:46:03.265Z,100.00
2023-04-30T01:49:18.590Z,100.00
2023-04-30T01:52:33.809Z,100.00
2023-04-30T01:55:52.031Z,100.00
2023-04-30T01:58:58.768Z,100.00
2023-04-30T02:02:06.298Z,100.00
2023-04-30T02:05:10.277Z,100.00
2023-04-30T02:08:15.604Z,100.00
2023-04-30T02:11:18.774Z,100.00
2023-04-30T02:14:23.916Z,100.00
2023-04-30T02:17:31.339Z,100.00
2023-04-30T02:20:34.910Z,100.00
2023-04-30T02:23:37.975Z,100.00
2023-04-30T02:26:41.136Z,100.00
2023-04-30T02:29:44.296Z,100.00
2023-04-30T02:32:48.950Z,100.00
2023-04-30T02:35:52.003Z,100.00
2023-04-30T02:38:54.991Z,100.00
2023-04-30T02:41:58.038Z,100.00
2023-04-30T02:45:01.355Z,100.00
2023-04-30T02:48:06.092Z,100.00
2023-04-30T02:51:09.758Z,100.00
2023-04-30T02:54:12.917Z,100.00
2023-04-30T02:57:15.985Z,100.00
2023-04-30T03:00:19.211Z,100.00
2023-04-30T03:03:24.025Z,100.00
2023-04-30T03:06:27.746Z,100.00
2023-04-30T03:09:31.581Z,100.00
2023-04-30T03:12:34.693Z,100.00
2023-04-30T03:15:38.335Z,100.00
2023-04-30T03:18:43.160Z,100.00
2023-04-30T03:21:46.468Z,100.00
2023-04-30T03:24:49.778Z,100.00
2023-04-30T03:27:52.816Z,100.00
2023-04-30T03:30:56.168Z,100.00
2023-04-30T03:34:00.592Z,100.00
2023-04-30T03:37:04.098Z,100.00
2023-04-30T03:40:09.264Z,100.00
2023-04-30T03:43:13.690Z,100.00
2023-04-30T03:46:16.933Z,100.00
2023-04-30T03:49:22.119Z,100.00
2023-04-30T03:52:26.475Z,100.00
2023-04-30T03:55:29.999Z,100.00
2023-04-30T03:58:33.306Z,100.00
2023-04-30T04:01:36.720Z,100.00
2023-04-30T04:04:41.490Z,100.00
2023-04-30T04:07:47.312Z,100.00
2023-04-30T04:10:50.856Z,100.00
2023-04-30T04:13:54.053Z,100.00
2023-04-30T04:17:00.111Z,100.00
2023-04-30T04:20:07.352Z,100.00
2023-04-30T04:23:11.625Z,100.00
2023-04-30T04:26:14.981Z,100.00
2023-04-30T04:29:18.064Z,100.00
2023-04-30T04:32:22.782Z,100.00
2023-04-30T04:35:27.553Z,100.00
2023-04-30T04:38:31.006Z,100.00
2023-04-30T04:41:35.851Z,100.00
2023-04-30T04:44:41.298Z,100.00
2023-04-30T04:47:44.785Z,100.00
2023-04-30T04:50:49.746Z,100.00
2023-04-30T04:53:52.791Z,100.00
2023-04-30T04:56:56.524Z,100.00
2023-04-30T05:00:00.976Z,100.00
2023-04-30T05:03:04.350Z,100.00
2023-04-30T05:06:09.277Z,100.00
2023-04-30T05:09:12.367Z,100.00
2023-04-30T05:12:15.803Z,100.00
2023-04-30T05:15:19.099Z,100.00
2023-04-30T05:18:22.258Z,100.00
2023-04-30T05:21:30.221Z,100.00
2023-04-30T05:24:34.163Z,100.00
2023-04-30T05:27:37.238Z,100.00
2023-04-30T05:30:40.440Z,100.00
2023-04-30T05:33:43.519Z,100.00
2023-04-30T05:36:47.841Z,100.00
2023-04-30T05:39:50.891Z,100.00
2023-04-30T05:42:54.367Z,100.00
2023-04-30T05:45:57.463Z,100.00
2023-04-30T05:49:00.502Z,100.00
2023-04-30T05:52:05.253Z,100.00
2023-04-30T05:55:11.248Z,100.00
2023-04-30T05:58:14.813Z,100.00
2023-04-30T06:01:19.324Z,100.00
2023-04-30T06:04:22.357Z,100.00
2023-04-30T06:07:26.748Z,100.00
2023-04-30T06:10:30.989Z,100.00
2023-04-30T06:13:34.472Z,100.00
2023-04-30T06:16:37.565Z,100.00
2023-04-30T06:19:40.715Z,100.00
2023-04-30T06:22:45.315Z,100.00
2023-04-30T06:25:48.501Z,100.00
2023-04-30T06:28:51.546Z,100.00
2023-04-30T06:31:54.733Z,100.00
2023-04-30T06:34:57.789Z,100.00
2023-04-30T06:38:02.215Z,100.00
2023-04-30T06:41:05.353Z,100.00
2023-04-30T06:44:09.329Z,100.00
2023-04-30T06:47:12.484Z,100.00
2023-04-30T06:50:15.870Z,100.00
2023-04-30T06:53:20.286Z,100.00
2023-04-30T06:56:23.422Z,100.00
2023-04-30T06:59:26.624Z,100.00
2023-04-30T07:02:29.718Z,100.00
2023-04-30T07:05:33.442Z,100.00
2023-04-30T07:08:38.609Z,100.00
2023-04-30T07:11:42.105Z,100.00
2023-04-30T07:14:45.514Z,100.00
2023-04-30T07:17:49.549Z,100.00
2023-04-30T07:20:52.608Z,100.00
2023-04-30T07:23:57.466Z,100.00
2023-04-30T07:27:02.944Z,100.00
2023-04-30T07:30:08.313Z,100.00
2023-04-30T07:33:11.910Z,100.00
2023-04-30T07:36:15.258Z,100.00
2023-04-30T07:39:19.751Z,100.00
2023-04-30T07:42:23.262Z,100.00
2023-04-30T07:45:26.714Z,100.00
2023-04-30T07:48:29.818Z,100.00
2023-04-30T07:51:34.002Z,100.00
2023-04-30T07:54:40.086Z,100.00
2023-04-30T07:57:43.175Z,100.00
2023-04-30T08:00:48.289Z,100.00
2023-04-30T08:03:51.444Z,100.00
2023-04-30T08:06:54.590Z,100.00
2023-04-30T08:09:58.962Z,100.00
2023-04-30T08:13:01.989Z,100.00
2023-04-30T08:16:07.298Z,100.00
2023-04-30T08:19:10.410Z,100.00
2023-04-30T08:22:13.799Z,99.83
2023-04-30T08:25:18.272Z,95.64
2023-04-30T08:28:21.522Z,94.03
2023-04-30T08:31:24.719Z,95.12
2023-04-30T08:34:27.789Z,91.56
2023-04-30T08:37:30.972Z,91.74
2023-04-30T08:40:50.957Z,89.76
2023-04-30T08:43:57.092Z,87.07
2023-04-30T08:47:01.503Z,84.06
2023-04-30T08:50:04.804Z,82.80
2023-04-30T08:53:09.728Z,80.59
2023-04-30T08:56:14.113Z,73.00
2023-04-30T08:59:17.126Z,78.52
2023-04-30T09:02:20.397Z,74.14
2023-04-30T09:05:23.691Z,77.77
2023-04-30T09:08:43.083Z,82.57
2023-04-30T09:11:47.481Z,81.57
2023-04-30T09:15:09.010Z,74.90
2023-04-30T09:18:17.465Z,74.42
2023-04-30T09:21:33.670Z,73.28
2023-04-30T09:24:52.360Z,66.81
2023-04-30T09:28:11.395Z,71.36
2023-04-30T09:31:21.238Z,65.75
2023-04-30T09:34:35.809Z,63.16
2023-04-30T09:37:39.435Z,62.93
2023-04-30T09:40:43.493Z,60.13
2023-04-30T09:43:50.164Z,60.42
2023-04-30T09:46:54.142Z,58.83
2023-04-30T09:49:57.420Z,59.08
2023-04-30T09:53:08.616Z,61.81
2023-04-30T09:56:15.690Z,64.61
2023-04-30T09:59:23.138Z,59.70
2023-04-30T10:02:26.979Z,56.74
2023-04-30T10:05:30.227Z,54.21
2023-04-30T10:08:42.596Z,56.66
2023-04-30T10:11:55.815Z,54.29
2023-04-30T10:15:09.547Z,52.60
2023-04-30T10:18:19.350Z,44.31
2023-04-30T10:21:26.974Z,50.64
2023-04-30T10:24:31.154Z,50.61
2023-04-30T10:27:34.297Z,53.13
2023-04-30T10:30:39.456Z,44.54
2023-04-30T10:33:52.267Z,45.24
2023-04-30T10:37:00.120Z,46.36
2023-04-30T10:40:05.076Z,49.47
2023-04-30T10:43:08.155Z,45.92
2023-04-30T10:46:12.642Z,49.45
2023-04-30T10:49:16.065Z,43.40
2023-04-30T10:52:30.597Z,45.49
2023-04-30T10:55:39.975Z,46.35
2023-04-30T10:58:44.161Z,49.70
2023-04-30T11:02:02.403Z,46.81
2023-04-30T11:05:14.558Z,43.89
2023-04-30T11:08:18.182Z,46.48
2023-04-30T11:11:22.079Z,47.40
2023-04-30T11:14:25.568Z,45.55
2023-04-30T11:17:30.185Z,45.96
2023-04-30T11:20:33.406Z,47.52
2023-04-30T11:23:40.366Z,45.31
2023-04-30T11:27:07.165Z,49.84
2023-04-30T11:30:15.561Z,44.23
2023-04-30T11:33:20.504Z,44.32
2023-04-30T11:36:23.619Z,47.75
2023-04-30T11:39:27.937Z,46.09
2023-04-30T11:42:34.717Z,45.64
2023-04-30T11:45:40.445Z,44.89
2023-04-30T11:48:46.698Z,46.45
2023-04-30T11:51:53.874Z,42.26
2023-04-30T11:55:01.010Z,42.03
2023-04-30T11:58:04.555Z,45.94
2023-04-30T12:01:09.635Z,41.04
2023-04-30T12:04:14.886Z,40.93
2023-04-30T12:07:17.986Z,45.07
2023-04-30T12:10:21.610Z,46.00
2023-04-30T12:13:24.656Z,47.13
2023-04-30T12:16:39.474Z,40.84
2023-04-30T12:19:43.815Z,41.11
2023-04-30T12:22:47.315Z,41.32
2023-04-30T12:25:53.215Z,46.36
2023-04-30T12:28:57.285Z,43.41
2023-04-30T12:32:01.343Z,39.56
2023-04-30T12:35:07.705Z,43.25
2023-04-30T12:38:10.727Z,44.65
2023-04-30T12:41:15.355Z,43.83
2023-04-30T12:44:20.901Z,44.14
2023-04-30T12:47:26.187Z,47.10
2023-04-30T12:50:31.060Z,41.36
2023-04-30T12:53:34.187Z,39.62
2023-04-30T12:56:37.415Z,41.30
2023-04-30T12:59:58.911Z,41.71
2023-04-30T13:03:02.025Z,42.97
2023-04-30T13:06:10.003Z,43.73
2023-04-30T13:09:13.287Z,39.07
2023-04-30T13:12:16.310Z,44.74
2023-04-30T13:15:19.782Z,48.42
2023-04-30T13:18:23.373Z,40.59
2023-04-30T13:21:28.009Z,50.31
2023-04-30T13:24:31.387Z,46.25
2023-04-30T13:27:34.575Z,42.22
2023-04-30T13:30:43.248Z,42.41
2023-04-30T13:33:46.317Z,40.04
2023-04-30T13:36:52.010Z,43.37
2023-04-30T13:39:55.332Z,42.31
2023-04-30T13:42:58.590Z,39.24
2023-04-30T13:46:01.871Z,40.87
2023-04-30T13:49:05.718Z,42.78
2023-04-30T13:52:16.467Z,41.74
2023-04-30T13:55:19.782Z,40.07
2023-04-30T13:58:22.856Z,43.93
2023-04-30T14:01:26.173Z,38.08
2023-04-30T14:04:30.981Z,38.99
2023-04-30T14:07:35.496Z,49.42
2023-04-30T14:10:38.881Z,41.74
2023-04-30T14:13:45.595Z,42.42
2023-04-30T14:16:51.354Z,45.76
2023-04-30T14:19:55.204Z,38.48
2023-04-30T14:23:01.992Z,38.34
2023-04-30T14:26:06.584Z,37.98
2023-04-30T14:29:10.184Z,36.77
2023-04-30T14:32:15.163Z,37.28
2023-04-30T14:35:25.565Z,34.65
2023-04-30T14:38:30.046Z,37.17
2023-04-30T14:41:37.690Z,34.98
2023-04-30T14:44:41.696Z,38.54
2023-04-30T14:53:35.388Z,42.71
2023-04-30T14:56:39.099Z,35.06
2023-04-30T15:01:01.038Z,33.42
2023-04-30T15:04:04.134Z,39.76
2023-04-30T15:07:07.423Z,35.89
2023-04-30T15:10:12.723Z,38.96
2023-04-30T15:13:16.033Z,35.80
2023-04-30T15:16:19.352Z,34.30
2023-04-30T15:19:22.701Z,35.74
2023-04-30T15:22:25.784Z,37.65
2023-04-30T15:25:30.386Z,36.99
2023-04-30T15:28:33.607Z,41.94
2023-04-30T15:31:36.672Z,40.86
2023-04-30T15:34:40.711Z,38.04
2023-04-30T15:37:44.778Z,34.14
2023-04-30T15:40:49.719Z,34.98
2023-04-30T15:43:52.759Z,37.32
2023-04-30T15:46:56.720Z,33.38
2023-04-30T15:49:59.796Z,35.37
2023-04-30T15:53:02.835Z,35.24
2023-04-30T15:56:11.272Z,36.12
2023-04-30T15:59:17.527Z,35.93
2023-04-30T16:02:22.409Z,35.98
2023-04-30T16:05:25.880Z,38.06
2023-04-30T16:08:29.636Z,37.96
2023-04-30T16:11:34.101Z,38.97
2023-04-30T16:14:37.286Z,39.51
2023-04-30T16:17:40.275Z,39.24
2023-04-30T16:20:43.783Z,38.69
2023-04-30T16:23:50.420Z,38.15
2023-04-30T16:26:58.457Z,37.90
2023-04-30T16:30:01.981Z,39.43
2023-04-30T16:33:05.502Z,39.80
2023-04-30T16:36:08.614Z,38.28
2023-04-30T16:39:12.359Z,39.21
2023-04-30T16:42:16.739Z,43.36
2023-04-30T16:45:19.725Z,39.85
2023-04-30T16:48:22.970Z,39.39
2023-04-30T16:51:27.303Z,38.95
2023-04-30T16:54:30.504Z,39.57
2023-04-30T16:57:34.928Z,38.50
2023-04-30T17:00:38.016Z,40.65
2023-04-30T17:03:41.192Z,43.45
2023-04-30T17:06:44.421Z,40.22
2023-04-30T17:09:47.715Z,41.13
2023-04-30T17:12:52.280Z,41.06
2023-04-30T17:16:01.446Z,42.37
2023-04-30T17:19:05.548Z,40.86
2023-04-30T17:22:09.599Z,43.21
2023-04-30T17:25:12.951Z,40.90
2023-04-30T17:28:17.632Z,41.69
2023-04-30T17:31:20.704Z,40.49
2023-04-30T17:34:23.992Z,41.17
2023-04-30T17:37:27.150Z,40.66
2023-04-30T17:40:31.445Z,39.71
2023-04-30T17:43:35.845Z,39.67
2023-04-30T17:46:39.585Z,40.80
2023-04-30T17:49:42.681Z,42.69
2023-04-30T17:52:45.961Z,40.16
2023-04-30T17:55:49.084Z,42.02
2023-04-30T17:58:53.402Z,40.78
2023-04-30T18:01:56.435Z,40.60
2023-04-30T18:04:59.524Z,40.16
2023-04-30T18:08:02.911Z,40.86
2023-04-30T18:11:08.541Z,43.65
2023-04-30T18:14:12.913Z,41.74
2023-04-30T18:17:16.521Z,43.51
2023-04-30T18:20:19.762Z,45.88
2023-04-30T18:23:24.301Z,46.53
2023-04-30T18:26:27.757Z,45.05
2023-04-30T18:29:32.175Z,45.25
2023-04-30T18:32:35.976Z,50.94
2023-04-30T18:35:42.314Z,58.49
2023-04-30T18:38:45.693Z,59.91
2023-04-30T18:41:49.386Z,55.48
2023-04-30T18:44:54.363Z,59.70
2023-04-30T18:47:57.445Z,59.22
2023-04-30T18:51:00.937Z,61.27
2023-04-30T18:54:03.931Z,67.29
2023-04-30T18:57:07.926Z,70.98
2023-04-30T19:00:15.048Z,68.62
2023-04-30T19:03:18.357Z,75.65
2023-04-30T19:06:23.479Z,81.27
2023-04-30T19:09:26.555Z,84.00
2023-04-30T19:12:29.565Z,82.27
2023-04-30T19:15:33.979Z,80.42
2023-04-30T19:18:39.520Z,89.18
2023-04-30T19:21:42.585Z,92.20
2023-04-30T19:24:45.693Z,91.34
2023-04-30T19:27:48.997Z,87.74
2023-04-30T19:30:54.545Z,90.35
2023-04-30T19:34:01.071Z,91.90
2023-04-30T19:37:04.265Z,89.44
2023-04-30T19:40:14.369Z,91.27
2023-04-30T19:43:20.377Z,87.31
2023-04-30T19:46:25.613Z,81.21
2023-04-30T19:49:29.286Z,84.44
2023-04-30T19:52:32.326Z,81.29
2023-04-30T19:55:35.350Z,78.91
2023-04-30T19:58:38.423Z,80.73
2023-04-30T20:01:43.315Z,85.10
2023-04-30T20:04:46.333Z,85.17
2023-04-30T20:07:49.349Z,86.34
2023-04-30T20:10:57.155Z,93.45
2023-04-30T20:14:00.313Z,94.61
2023-04-30T20:17:04.785Z,96.03
2023-04-30T20:20:09.154Z,100.00
2023-04-30T20:23:20.645Z,100.00
2023-04-30T20:26:27.255Z,100.00
2023-04-30T20:29:30.258Z,100.00
2023-04-30T20:32:38.982Z,100.00
2023-04-30T20:35:47.352Z,100.00
2023-04-30T20:38:56.041Z,100.00
2023-04-30T20:41:59.196Z,100.00
2023-04-30T20:45:04.606Z,100.00
2023-04-30T20:48:10.181Z,100.00
2023-04-30T20:51:13.623Z,100.00
2023-04-30T20:54:17.626Z,100.00
2023-04-30T20:57:20.818Z,100.00
2023-04-30T21:00:23.886Z,100.00
2023-04-30T21:03:28.420Z,100.00
2023-04-30T21:06:31.992Z,100.00
2023-04-30T21:09:35.781Z,100.00
2023-04-30T21:12:38.863Z,100.00
2023-04-30T21:15:43.077Z,100.00
2023-04-30T21:18:48.809Z,100.00
2023-04-30T21:21:51.844Z,100.00
2023-04-30T21:24:55.061Z,100.00
2023-04-30T21:27:58.299Z,100.00
2023-04-30T21:31:07.324Z,100.00
2023-04-30T21:34:11.844Z,100.00
2023-04-30T21:37:17.193Z,100.00
2023-04-30T21:40:20.657Z,100.00
2023-04-30T21:43:23.722Z,100.00
2023-04-30T21:46:26.800Z,100.00
2023-04-30T21:49:31.307Z,100.00
2023-04-30T21:52:34.373Z,100.00
2023-04-30T21:55:37.390Z,100.00
2023-04-30T21:58:40.732Z,100.00
2023-04-30T22:01:43.765Z,100.00
2023-04-30T22:04:48.204Z,100.00
2023-04-30T22:07:51.272Z,100.00
2023-04-30T22:10:58.788Z,100.00
2023-04-30T22:14:01.867Z,100.00
2023-04-30T22:17:05.102Z,100.00
2023-04-30T22:20:10.821Z,100.00
2023-04-30T22:23:13.813Z,100.00
2023-04-30T22:26:16.762Z,100.00
2023-04-30T22:29:19.764Z,100.00
2023-04-30T22:32:22.808Z,100.00
2023-04-30T22:35:28.729Z,100.00
2023-04-30T22:38:32.255Z,100.00
2023-04-30T22:41:35.381Z,100.00
2023-04-30T22:44:38.711Z,100.00
2023-04-30T22:47:43.028Z,100.00
2023-04-30T22:50:47.837Z,100.00
2023-04-30T22:53:50.996Z,100.00
2023-04-30T22:56:55.062Z,100.00
2023-04-30T22:59:58.348Z,100.00
2023-04-30T23:03:01.689Z,100.00
2023-04-30T23:06:06.913Z,100.00
2023-04-30T23:09:10.288Z,100.00
2023-04-30T23:12:13.556Z,100.00
2023-04-30T23:15:17.908Z,100.00
2023-04-30T23:18:21.455Z,100.00
2023-04-30T23:21:26.768Z,100.00
2023-04-30T23:24:35.054Z,100.00
2023-04-30T23:27:38.112Z,100.00
2023-04-30T23:30:41.368Z,100.00
2023-04-30T23:33:44.513Z,100.00
2023-04-30T23:36:48.879Z,100.00
2023-04-30T23:39:51.977Z,100.00
2023-04-30T23:42:54.935Z,100.00
2023-04-30T23:45:58.221Z,100.00
2023-04-30T23:49:01.262Z,100.00
2023-04-30T23:52:06.232Z,100.00
2023-04-30T23:55:12.405Z,100.00
2023-04-30T23:58:15.526Z,100.00
